createdAt,value
2023-04-19T00:00:39.294Z,10.84
2023-04-19T00:02:42.847Z,10.77
2023-04-19T00:04:45.464Z,10.48
2023-04-19T00:06:47.469Z,10.40
2023-04-19T00:08:49.047Z,10.38
2023-04-19T00:10:50.513Z,10.38
2023-04-19T00:12:52.133Z,10.44
2023-04-19T00:14:53.679Z,10.42
2023-04-19T00:16:55.239Z,10.44
2023-04-19T00:18:56.729Z,10.53
2023-04-19T00:20:58.268Z,10.55
2023-04-19T00:22:59.796Z,10.39
2023-04-19T00:25:01.465Z,9.89
2023-04-19T00:27:03.826Z,9.77
2023-04-19T00:29:05.387Z,9.74
2023-04-19T00:31:06.923Z,9.68
2023-04-19T00:33:13.071Z,9.77
2023-04-19T00:35:15.042Z,9.80
2023-04-19T00:37:16.517Z,9.84
2023-04-19T00:39:18.064Z,10.04
2023-04-19T00:41:19.608Z,10.20
2023-04-19T00:43:21.227Z,10.17
2023-04-19T00:45:22.680Z,9.90
2023-04-19T00:47:24.169Z,10.00
2023-04-19T00:49:26.138Z,10.03
2023-04-19T00:51:27.850Z,10.14
2023-04-19T00:53:29.355Z,10.27
2023-04-19T00:55:30.911Z,10.40
2023-04-19T00:57:32.445Z,10.57
2023-04-19T00:59:34.803Z,10.62
2023-04-19T01:01:36.598Z,10.72
2023-04-19T01:03:38.479Z,10.81
2023-04-19T01:05:40.279Z,10.93
2023-04-19T01:07:42.165Z,10.92
2023-04-19T01:09:44.039Z,10.94
2023-04-19T01:11:45.541Z,10.91
2023-04-19T01:13:47.061Z,10.97
2023-04-19T01:15:48.757Z,10.97
2023-04-19T01:17:50.301Z,10.94
2023-04-19T01:19:58.750Z,10.92
2023-04-19T01:22:00.523Z,10.95
2023-04-19T01:24:01.982Z,10.94
2023-04-19T01:26:03.478Z,10.89
2023-04-19T01:28:05.245Z,10.89
2023-04-19T01:30:07.243Z,10.86
2023-04-19T01:32:08.793Z,10.90
2023-04-19T01:34:10.399Z,10.90
2023-04-19T01:36:13.132Z,10.71
2023-04-19T01:38:15.065Z,10.63
2023-04-19T01:40:16.758Z,10.41
2023-04-19T01:42:18.306Z,10.01
2023-04-19T01:44:19.771Z,9.59
2023-04-19T01:46:21.330Z,9.39
2023-04-19T01:48:22.936Z,9.00
2023-04-19T01:50:24.426Z,9.02
2023-04-19T01:52:25.884Z,8.94
2023-04-19T01:54:27.326Z,8.84
2023-04-19T01:56:28.809Z,8.90
2023-04-19T01:58:30.385Z,8.96
2023-04-19T02:00:31.881Z,8.95
2023-04-19T02:02:33.402Z,8.75
2023-04-19T02:04:35.040Z,8.73
2023-04-19T02:06:36.573Z,8.75
2023-04-19T02:08:38.544Z,8.89
2023-04-19T02:10:40.064Z,8.67
2023-04-19T02:12:41.972Z,8.57
2023-04-19T02:14:43.467Z,8.82
2023-04-19T02:16:44.938Z,9.11
2023-04-19T02:18:46.942Z,9.34
2023-04-19T02:20:48.503Z,9.50
2023-04-19T02:22:49.943Z,9.67
2023-04-19T02:24:51.500Z,9.80
2023-04-19T02:26:53.136Z,9.89
2023-04-19T02:28:54.622Z,10.00
2023-04-19T02:30:56.317Z,10.09
2023-04-19T02:32:58.886Z,10.13
2023-04-19T02:35:00.527Z,10.12
2023-04-19T02:37:02.330Z,10.15
2023-04-19T02:39:05.669Z,10.15
2023-04-19T02:41:07.209Z,10.09
2023-04-19T02:43:08.704Z,10.07
2023-04-19T02:45:10.382Z,10.07
2023-04-19T02:47:11.862Z,10.04
2023-04-19T02:49:13.584Z,10.08
2023-04-19T02:51:16.660Z,9.67
2023-04-19T02:53:18.153Z,9.73
2023-04-19T02:55:19.631Z,9.80
2023-04-19T02:57:21.073Z,9.84
2023-04-19T02:59:22.561Z,9.90
2023-04-19T03:01:24.225Z,9.77
2023-04-19T03:03:25.795Z,9.80
2023-04-19T03:05:27.322Z,9.87
2023-04-19T03:07:28.869Z,9.96
2023-04-19T03:09:30.635Z,10.08
2023-04-19T03:11:32.108Z,10.14
2023-04-19T03:13:33.671Z,10.21
2023-04-19T03:15:35.306Z,10.09
2023-04-19T03:17:37.716Z,10.13
2023-04-19T03:19:39.350Z,10.17
2023-04-19T03:21:41.425Z,10.27
2023-04-19T03:23:42.884Z,10.28
2023-04-19T03:25:44.373Z,10.16
2023-04-19T03:27:47.998Z,10.16
2023-04-19T03:29:49.532Z,10.16
2023-04-19T03:31:51.087Z,10.15
2023-04-19T03:33:52.574Z,10.22
2023-04-19T03:35:54.243Z,10.25
2023-04-19T03:37:55.896Z,10.31
2023-04-19T03:39:57.342Z,10.39
2023-04-19T03:41:58.865Z,10.43
2023-04-19T03:44:00.412Z,10.42
2023-04-19T03:46:02.190Z,10.39
2023-04-19T03:48:03.824Z,10.38
2023-04-19T03:50:05.465Z,10.29
2023-04-19T03:52:06.985Z,10.25
2023-04-19T03:54:08.501Z,10.23
2023-04-19T03:56:10.046Z,10.23
2023-04-19T03:58:11.736Z,10.25
2023-04-19T04:00:13.552Z,10.28
2023-04-19T04:02:15.129Z,10.18
2023-04-19T04:04:17.130Z,10.23
2023-04-19T04:06:18.955Z,10.18
2023-04-19T04:08:20.542Z,9.96
2023-04-19T04:10:22.170Z,9.72
2023-04-19T04:12:23.666Z,9.69
2023-04-19T04:14:25.179Z,9.69
2023-04-19T04:16:26.730Z,9.83
2023-04-19T04:18:28.731Z,9.84
2023-04-19T04:20:30.742Z,9.90
2023-04-19T04:22:32.893Z,9.86
2023-04-19T04:24:41.533Z,9.60
2023-04-19T04:26:43.168Z,9.57
2023-04-19T04:28:44.627Z,9.45
2023-04-19T04:30:46.102Z,8.97
2023-04-19T04:32:47.700Z,8.96
2023-04-19T04:34:49.224Z,8.71
2023-04-19T04:36:50.715Z,8.43
2023-04-19T04:38:52.242Z,8.35
2023-04-19T04:40:57.095Z,8.26
2023-04-19T04:43:00.994Z,8.16
2023-04-19T04:45:02.552Z,8.19
2023-04-19T04:47:03.980Z,8.05
2023-04-19T04:49:05.488Z,8.17
2023-04-19T04:51:07.347Z,8.19
2023-04-19T04:53:11.096Z,8.40
2023-04-19T04:55:14.407Z,8.56
2023-04-19T04:57:16.041Z,8.68
2023-04-19T04:59:17.499Z,8.89
2023-04-19T05:01:19.658Z,9.02
2023-04-19T05:03:21.225Z,9.12
2023-04-19T05:05:22.845Z,9.19
2023-04-19T05:07:24.393Z,9.02
2023-04-19T05:09:25.918Z,9.09
2023-04-19T05:11:27.402Z,9.19
2023-04-19T05:13:28.834Z,9.27
2023-04-19T05:15:30.873Z,8.87
2023-04-19T05:17:32.443Z,8.93
2023-04-19T05:19:34.036Z,8.97
2023-04-19T05:21:35.512Z,9.12
2023-04-19T05:23:37.842Z,9.11
2023-04-19T05:25:39.326Z,9.27
2023-04-19T05:27:40.867Z,9.42
2023-04-19T05:29:42.406Z,9.56
2023-04-19T05:31:43.964Z,9.72
2023-04-19T05:33:45.484Z,9.83
2023-04-19T05:35:47.061Z,9.69
2023-04-19T05:37:48.602Z,9.14
2023-04-19T05:39:50.311Z,8.76
2023-04-19T05:41:51.876Z,8.53
2023-04-19T05:43:53.428Z,8.44
2023-04-19T05:45:54.961Z,8.69
2023-04-19T05:47:56.705Z,8.75
2023-04-19T05:49:58.237Z,8.42
2023-04-19T05:51:59.741Z,8.61
2023-04-19T05:54:01.333Z,8.63
2023-04-19T05:56:02.783Z,8.87
2023-04-19T05:58:04.249Z,8.79
2023-04-19T06:00:06.119Z,8.90
2023-04-19T06:02:07.765Z,9.19
2023-04-19T06:04:09.521Z,9.44
2023-04-19T06:06:11.180Z,9.20
2023-04-19T06:08:12.748Z,9.42
2023-04-19T06:10:14.275Z,9.51
2023-04-19T06:12:15.947Z,9.63
2023-04-19T06:14:17.922Z,9.77
2023-04-19T06:16:19.947Z,9.96
2023-04-19T06:18:21.434Z,10.13
2023-04-19T06:20:22.922Z,10.20
2023-04-19T06:22:24.436Z,10.20
2023-04-19T06:24:25.945Z,10.28
2023-04-19T06:26:27.527Z,10.27
2023-04-19T06:28:28.991Z,10.25
2023-04-19T06:30:30.542Z,10.26
2023-04-19T06:32:32.032Z,10.31
2023-04-19T06:34:33.630Z,10.34
2023-04-19T06:36:35.078Z,10.41
2023-04-19T06:38:38.458Z,10.55
2023-04-19T06:40:40.060Z,10.54
2023-04-19T06:42:41.546Z,10.66
2023-04-19T06:44:43.006Z,10.74
2023-04-19T06:46:44.491Z,10.81
2023-04-19T06:48:46.025Z,10.87
2023-04-19T06:50:47.564Z,10.90
2023-04-19T06:52:49.093Z,10.88
2023-04-19T06:54:50.803Z,10.94
2023-04-19T06:56:52.393Z,10.89
2023-04-19T06:58:53.948Z,11.01
2023-04-19T07:00:55.569Z,10.98
2023-04-19T07:02:57.266Z,10.93
2023-04-19T07:04:58.809Z,10.78
2023-04-19T07:07:00.517Z,10.79
2023-04-19T07:09:02.614Z,10.83
2023-04-19T07:11:05.212Z,10.97
2023-04-19T07:13:06.766Z,11.07
2023-04-19T07:15:08.519Z,11.07
2023-04-19T07:17:10.040Z,11.11
2023-04-19T07:19:11.652Z,11.05
2023-04-19T07:21:13.224Z,11.12
2023-04-19T07:23:15.109Z,11.11
2023-04-19T07:25:16.632Z,11.13
2023-04-19T07:27:18.783Z,11.14
2023-04-19T07:29:20.453Z,10.34
2023-04-19T07:31:21.991Z,9.76
2023-04-19T07:33:25.868Z,9.98
2023-04-19T07:35:28.831Z,10.25
2023-04-19T07:37:30.517Z,10.44
2023-04-19T07:39:32.080Z,10.53
2023-04-19T07:41:34.480Z,10.68
2023-04-19T07:43:39.192Z,10.78
2023-04-19T07:45:41.520Z,10.99
2023-04-19T07:47:43.168Z,11.16
2023-04-19T07:49:44.664Z,11.20
2023-04-19T07:51:46.198Z,11.18
2023-04-19T07:53:48.291Z,11.28
2023-04-19T07:55:49.832Z,11.30
2023-04-19T07:57:51.317Z,11.30
2023-04-19T07:59:57.879Z,11.15
2023-04-19T08:01:59.542Z,11.22
2023-04-19T08:04:01.357Z,11.20
2023-04-19T08:06:08.229Z,11.25
2023-04-19T08:08:09.806Z,11.33
2023-04-19T08:10:11.501Z,11.32
2023-04-19T08:12:23.098Z,11.36
2023-04-19T08:14:43.848Z,11.38
2023-04-19T08:18:53.680Z,11.40
2023-04-19T08:20:56.558Z,11.37
2023-04-19T08:23:00.549Z,11.37
2023-04-19T08:25:04.142Z,11.43
2023-04-19T08:27:05.790Z,11.28
2023-04-19T08:29:07.389Z,10.69
2023-04-19T08:31:08.934Z,10.86
2023-04-19T08:33:10.958Z,11.01
2023-04-19T08:35:13.320Z,11.11
2023-04-19T08:37:14.866Z,11.32
2023-04-19T08:39:29.212Z,11.47
2023-04-19T08:41:33.689Z,11.55
2023-04-19T08:43:35.887Z,11.62
2023-04-19T08:45:37.568Z,11.70
2023-04-19T08:49:44.773Z,11.90
2023-04-19T08:51:47.273Z,11.94
2023-04-19T08:53:49.711Z,11.90
2023-04-19T08:56:08.672Z,11.95
2023-04-19T08:58:18.970Z,12.00
2023-04-19T09:00:28.150Z,12.16
2023-04-19T09:02:29.949Z,12.26
2023-04-19T09:04:36.752Z,12.31
2023-04-19T09:06:39.588Z,12.35
2023-04-19T09:08:41.965Z,12.19
2023-04-19T09:10:46.104Z,12.16
2023-04-19T09:13:01.149Z,12.22
2023-04-19T09:15:04.537Z,11.02
2023-04-19T09:17:16.313Z,11.14
2023-04-19T09:19:24.112Z,11.59
2023-04-19T09:21:30.736Z,11.91
2023-04-19T09:23:32.198Z,12.20
2023-04-19T09:25:43.689Z,12.30
2023-04-19T09:27:54.229Z,11.95
2023-04-19T09:29:56.371Z,12.16
2023-04-19T09:31:59.012Z,12.21
2023-04-19T09:34:14.239Z,12.39
2023-04-19T09:36:29.135Z,12.48
2023-04-19T09:38:30.600Z,12.79
2023-04-19T09:40:32.127Z,12.28
2023-04-19T09:47:02.299Z,12.22
2023-04-19T09:49:36.933Z,12.67
2023-04-19T09:51:46.259Z,13.21
2023-04-19T09:53:47.790Z,13.39
2023-04-19T09:56:00.455Z,13.69
2023-04-19T09:58:04.001Z,13.84
2023-04-19T10:00:09.023Z,13.95
2023-04-19T10:02:10.654Z,13.63
2023-04-19T10:04:25.878Z,13.83
2023-04-19T10:06:51.706Z,14.06
2023-04-19T10:08:57.139Z,14.26
2023-04-19T10:10:59.234Z,13.51
2023-04-19T10:15:06.099Z,13.14
2023-04-19T10:17:07.705Z,13.46
2023-04-19T10:19:10.331Z,13.45
2023-04-19T10:21:12.185Z,12.95
2023-04-19T10:23:13.694Z,13.36
2023-04-19T10:25:15.913Z,13.40
2023-04-19T10:27:17.399Z,13.27
2023-04-19T10:29:38.874Z,13.51
2023-04-19T10:31:40.347Z,13.84
2023-04-19T10:33:42.159Z,12.93
2023-04-19T10:35:44.672Z,12.64
2023-04-19T10:38:18.340Z,13.19
2023-04-19T10:40:39.785Z,13.64
2023-04-19T10:43:01.530Z,13.13
2023-04-19T10:45:21.732Z,12.95
2023-04-19T10:47:43.657Z,13.29
2023-04-19T10:49:46.232Z,13.25
2023-04-19T10:51:49.149Z,13.62
2023-04-19T10:53:51.596Z,13.70
2023-04-19T10:55:53.118Z,13.98
2023-04-19T10:58:04.639Z,14.11
2023-04-19T11:00:18.823Z,14.41
2023-04-19T11:02:23.853Z,14.45
2023-04-19T11:04:27.519Z,14.70
2023-04-19T11:06:29.565Z,14.80
2023-04-19T11:08:33.896Z,14.78
2023-04-19T11:10:36.442Z,14.67
2023-04-19T11:12:43.419Z,14.71
2023-04-19T11:14:45.786Z,14.81
2023-04-19T11:16:47.333Z,14.62
2023-04-19T11:18:48.878Z,14.30
2023-04-19T11:20:53.126Z,14.44
2023-04-19T11:22:56.827Z,14.50
2023-04-19T11:25:08.112Z,14.78
2023-04-19T11:27:09.855Z,14.99
2023-04-19T11:29:11.622Z,14.94
2023-04-19T11:31:13.173Z,14.82
2023-04-19T11:33:14.709Z,14.40
2023-04-19T11:35:19.133Z,13.96
2023-04-19T11:37:20.622Z,14.17
2023-04-19T11:39:22.254Z,14.47
2023-04-19T11:41:23.779Z,14.71
2023-04-19T11:43:25.212Z,14.84
2023-04-19T11:45:32.058Z,14.98
2023-04-19T11:47:36.423Z,15.25
2023-04-19T11:49:37.941Z,14.87
2023-04-19T11:51:43.103Z,15.12
2023-04-19T11:53:44.631Z,15.25
2023-04-19T11:55:46.974Z,15.47
2023-04-19T11:57:48.440Z,15.70
2023-04-19T12:00:07.676Z,15.75
2023-04-19T12:02:10.422Z,15.04
2023-04-19T12:04:12.296Z,14.38
2023-04-19T12:06:15.184Z,14.65
2023-04-19T12:08:16.713Z,15.04
2023-04-19T12:10:18.201Z,15.19
2023-04-19T12:12:32.340Z,15.19
2023-04-19T12:14:34.352Z,15.14
2023-04-19T12:16:35.923Z,15.02
2023-04-19T12:18:44.668Z,15.15
2023-04-19T12:20:46.974Z,14.62
2023-04-19T12:22:48.378Z,13.97
2023-04-19T12:24:56.151Z,13.65
2023-04-19T12:26:57.800Z,13.92
2023-04-19T12:29:01.082Z,14.42
2023-04-19T12:31:02.661Z,14.86
2023-04-19T12:33:04.329Z,15.14
2023-04-19T12:35:06.965Z,15.47
2023-04-19T12:37:08.560Z,15.47
2023-04-19T12:39:10.127Z,15.67
2023-04-19T12:41:11.720Z,15.73
2023-04-19T12:43:13.253Z,15.65
2023-04-19T12:45:14.959Z,15.71
2023-04-19T12:47:16.538Z,15.11
2023-04-19T12:49:18.832Z,14.97
2023-04-19T12:51:20.363Z,15.06
2023-04-19T12:53:24.295Z,15.35
2023-04-19T12:55:25.794Z,15.51
2023-04-19T12:57:27.253Z,15.23
2023-04-19T12:59:28.760Z,14.61
2023-04-19T13:01:30.476Z,14.47
2023-04-19T13:03:33.350Z,14.20
2023-04-19T13:05:35.002Z,14.01
2023-04-19T13:07:36.751Z,13.75
2023-04-19T13:09:38.226Z,13.64
2023-04-19T13:11:39.745Z,13.35
2023-04-19T13:13:41.209Z,13.18
2023-04-19T13:15:42.989Z,12.92
2023-04-19T13:17:44.739Z,12.62
2023-04-19T13:19:46.454Z,12.75
2023-04-19T13:21:47.910Z,12.84
2023-04-19T13:23:49.457Z,12.96
2023-04-19T13:25:51.024Z,12.84
2023-04-19T13:27:52.633Z,12.65
2023-04-19T13:29:57.195Z,12.63
2023-04-19T13:31:58.660Z,12.67
2023-04-19T13:34:00.709Z,12.60
2023-04-19T13:36:02.294Z,12.72
2023-04-19T13:38:03.898Z,12.69
2023-04-19T13:40:18.165Z,12.59
2023-04-19T13:42:21.004Z,12.56
2023-04-19T13:44:22.568Z,12.59
2023-04-19T13:46:24.155Z,12.64
2023-04-19T13:48:28.829Z,12.69
2023-04-19T13:50:30.502Z,12.82
2023-04-19T13:52:32.046Z,12.96
2023-04-19T13:54:33.565Z,12.88
2023-04-19T13:56:35.162Z,12.95
2023-04-19T13:58:37.274Z,13.02
2023-04-19T14:00:38.725Z,13.24
2023-04-19T14:02:40.500Z,13.39
2023-04-19T14:04:42.144Z,13.57
2023-04-19T14:06:43.796Z,13.75
2023-04-19T14:08:45.276Z,13.60
2023-04-19T14:10:46.792Z,13.44
2023-04-19T14:12:49.141Z,13.50
2023-04-19T14:14:50.697Z,13.42
2023-04-19T14:16:52.228Z,13.73
2023-04-19T14:18:53.761Z,14.05
2023-04-19T14:20:55.248Z,14.32
2023-04-19T14:22:59.123Z,14.54
2023-04-19T14:25:00.655Z,14.68
2023-04-19T14:29:06.698Z,14.78
2023-04-19T14:31:08.188Z,14.87
2023-04-19T14:33:09.862Z,14.97
2023-04-19T14:35:12.124Z,15.04
2023-04-19T14:37:13.617Z,15.05
2023-04-19T14:39:15.658Z,14.81
2023-04-19T14:41:17.593Z,14.46
2023-04-19T14:43:19.083Z,14.08
2023-04-19T14:45:20.819Z,14.05
2023-04-19T14:47:22.506Z,13.67
2023-04-19T14:49:24.050Z,13.64
2023-04-19T14:51:25.476Z,13.61
2023-04-19T14:53:27.010Z,13.40
2023-04-19T14:55:28.503Z,13.49
2023-04-19T14:57:30.073Z,13.65
2023-04-19T14:59:31.633Z,13.73
2023-04-19T15:01:33.155Z,13.79
2023-04-19T15:03:34.839Z,13.92
2023-04-19T15:05:36.724Z,14.11
2023-04-19T15:07:38.463Z,14.27
2023-04-19T15:09:41.204Z,14.36
2023-04-19T15:11:42.766Z,14.45
2023-04-19T15:13:44.253Z,14.55
2023-04-19T15:15:45.759Z,14.61
2023-04-19T15:17:47.355Z,14.59
2023-04-19T15:19:48.864Z,14.54
2023-04-19T15:21:50.449Z,14.45
2023-04-19T15:23:52.011Z,14.29
2023-04-19T15:25:53.637Z,14.17
2023-04-19T15:27:55.574Z,14.11
2023-04-19T15:29:57.011Z,13.73
2023-04-19T15:31:58.649Z,13.12
2023-04-19T15:34:03.066Z,12.82
2023-04-19T15:36:04.688Z,12.86
2023-04-19T15:38:06.238Z,12.86
2023-04-19T15:40:09.855Z,13.09
2023-04-19T15:42:11.653Z,13.29
2023-04-19T15:44:13.400Z,13.54
2023-04-19T15:46:15.282Z,13.72
2023-04-19T15:48:16.846Z,14.00
2023-04-19T15:50:18.385Z,14.23
2023-04-19T15:52:20.106Z,14.41
2023-04-19T15:54:23.053Z,14.52
2023-04-19T15:56:24.542Z,14.30
2023-04-19T15:58:26.996Z,14.28
2023-04-19T16:00:29.294Z,14.14
2023-04-19T16:02:31.282Z,13.86
2023-04-19T16:04:33.070Z,13.60
2023-04-19T16:06:34.621Z,13.53
2023-04-19T16:08:36.262Z,13.67
2023-04-19T16:10:38.755Z,13.86
2023-04-19T16:12:40.304Z,13.98
2023-04-19T16:14:41.787Z,13.98
2023-04-19T16:16:43.291Z,13.78
2023-04-19T16:18:44.847Z,13.66
2023-04-19T16:20:46.341Z,13.31
2023-04-19T16:22:47.885Z,13.20
2023-04-19T16:24:49.338Z,13.29
2023-04-19T16:26:50.789Z,13.40
2023-04-19T16:28:52.416Z,13.51
2023-04-19T16:30:54.015Z,13.57
2023-04-19T16:32:55.819Z,13.50
2023-04-19T16:34:57.334Z,13.23
2023-04-19T16:36:58.889Z,13.17
2023-04-19T16:39:00.383Z,12.97
2023-04-19T16:41:04.593Z,12.94
2023-04-19T16:43:06.533Z,12.89
2023-04-19T16:45:08.418Z,12.93
2023-04-19T16:47:09.919Z,12.74
2023-04-19T16:49:12.047Z,12.76
2023-04-19T16:51:13.573Z,12.86
2023-04-19T16:53:15.331Z,12.61
2023-04-19T16:55:16.781Z,12.64
2023-04-19T16:57:18.515Z,12.75
2023-04-19T16:59:20.058Z,12.78
2023-04-19T17:01:21.596Z,12.76
2023-04-19T17:03:23.615Z,12.76
2023-04-19T17:05:25.329Z,12.74
2023-04-19T17:07:26.818Z,12.77
2023-04-19T17:09:28.493Z,12.72
2023-04-19T17:11:32.619Z,12.55
2023-04-19T17:13:34.107Z,12.01
2023-04-19T17:15:37.173Z,11.86
2023-04-19T17:17:38.819Z,11.83
2023-04-19T17:19:40.418Z,12.00
2023-04-19T17:21:41.926Z,12.17
2023-04-19T17:23:44.945Z,12.33
2023-04-19T17:25:46.452Z,12.41
2023-04-19T17:27:47.954Z,12.42
2023-04-19T17:29:49.469Z,12.22
2023-04-19T17:31:51.022Z,11.90
2023-04-19T17:33:52.666Z,11.94
2023-04-19T17:35:54.155Z,12.06
2023-04-19T17:37:55.772Z,12.14
2023-04-19T17:39:57.278Z,12.07
2023-04-19T17:41:58.715Z,11.87
2023-04-19T17:44:00.205Z,11.90
2023-04-19T17:46:01.795Z,12.02
2023-04-19T17:48:03.381Z,12.14
2023-04-19T17:50:06.702Z,12.27
2023-04-19T17:52:08.246Z,12.36
2023-04-19T17:54:09.674Z,12.45
2023-04-19T17:56:11.131Z,12.51
2023-04-19T17:58:12.576Z,12.46
2023-04-19T18:00:14.669Z,12.48
2023-04-19T18:02:16.192Z,12.52
2023-04-19T18:04:20.034Z,12.58
2023-04-19T18:06:21.850Z,12.57
2023-04-19T18:08:23.359Z,12.54
2023-04-19T18:10:24.974Z,12.56
2023-04-19T18:12:26.581Z,12.59
2023-04-19T18:14:28.144Z,12.63
2023-04-19T18:16:29.637Z,12.62
2023-04-19T18:18:31.200Z,12.63
2023-04-19T18:20:32.731Z,12.66
2023-04-19T18:22:34.267Z,12.63
2023-04-19T18:24:35.784Z,12.62
2023-04-19T18:26:38.889Z,12.57
2023-04-19T18:28:40.479Z,12.50
2023-04-19T18:30:42.057Z,12.48
2023-04-19T18:32:43.650Z,12.49
2023-04-19T18:34:45.468Z,12.44
2023-04-19T18:36:46.962Z,12.43
2023-04-19T18:38:48.481Z,12.44
2023-04-19T18:40:50.062Z,12.42
2023-04-19T18:42:51.527Z,12.45
2023-04-19T18:44:54.616Z,12.40
2023-04-19T18:46:56.706Z,12.49
2023-04-19T18:48:58.371Z,12.57
2023-04-19T18:51:00.064Z,12.55
2023-04-19T18:53:01.817Z,12.51
2023-04-19T18:55:03.979Z,12.55
2023-04-19T18:57:22.531Z,12.48
2023-04-19T18:59:26.068Z,12.44
2023-04-19T19:01:27.808Z,12.49
2023-04-19T19:03:58.030Z,12.44
2023-04-19T19:05:51.106Z,12.34
2023-04-19T19:07:52.874Z,11.88
2023-04-19T19:09:56.563Z,11.88
2023-04-19T19:11:58.564Z,11.74
2023-04-19T19:14:00.050Z,11.63
2023-04-19T19:16:01.704Z,11.48
2023-04-19T19:18:03.653Z,11.35
2023-04-19T19:20:06.686Z,11.30
2023-04-19T19:22:22.331Z,11.27
2023-04-19T19:24:27.185Z,11.33
2023-04-19T19:26:28.776Z,11.23
2023-04-19T19:28:30.265Z,11.03
2023-04-19T19:30:33.941Z,10.98
2023-04-19T19:32:35.597Z,11.03
2023-04-19T19:34:51.259Z,10.99
2023-04-19T19:36:55.952Z,10.79
2023-04-19T19:38:57.532Z,10.68
2023-04-19T19:41:37.040Z,10.71
2023-04-19T19:43:20.523Z,10.82
2023-04-19T19:45:22.056Z,10.93
2023-04-19T19:47:24.302Z,11.10
2023-04-19T19:49:26.294Z,11.23
2023-04-19T19:51:52.980Z,11.40
2023-04-19T19:53:49.897Z,11.61
2023-04-19T19:55:51.716Z,11.76
2023-04-19T20:00:12.976Z,11.97
2023-04-19T20:02:19.549Z,12.03
2023-04-19T20:04:22.759Z,12.07
2023-04-19T20:08:29.216Z,12.08
2023-04-19T20:10:31.010Z,12.12
2023-04-19T20:12:32.528Z,12.16
2023-04-19T20:14:36.655Z,12.20
2023-04-19T20:16:38.363Z,12.22
2023-04-19T20:18:42.529Z,12.18
2023-04-19T20:20:44.083Z,12.20
2023-04-19T20:22:45.724Z,12.20
2023-04-19T20:24:47.634Z,12.21
2023-04-19T20:26:49.143Z,12.14
2023-04-19T20:28:51.461Z,12.16
2023-04-19T20:30:52.987Z,12.16
2023-04-19T20:32:54.503Z,12.16
2023-04-19T20:34:56.020Z,12.16
2023-04-19T20:36:58.843Z,12.13
2023-04-19T20:39:01.952Z,12.17
2023-04-19T20:41:03.548Z,12.14
2023-04-19T20:43:05.033Z,12.05
2023-04-19T20:45:07.451Z,12.07
2023-04-19T20:47:09.067Z,12.02
2023-04-19T20:49:10.587Z,12.03
2023-04-19T20:51:12.824Z,12.08
2023-04-19T20:53:14.314Z,12.16
2023-04-19T20:55:16.480Z,12.20
2023-04-19T20:57:18.077Z,12.26
2023-04-19T20:59:19.563Z,12.25
2023-04-19T21:01:23.813Z,12.17
2023-04-19T21:03:26.321Z,12.07
2023-04-19T21:05:27.938Z,12.06
2023-04-19T21:07:29.501Z,11.97
2023-04-19T21:09:30.978Z,11.93
2023-04-19T21:11:32.444Z,11.95
2023-04-19T21:13:33.979Z,11.92
2023-04-19T21:15:36.952Z,11.97
2023-04-19T21:17:38.545Z,11.94
2023-04-19T21:19:40.159Z,11.91
2023-04-19T21:21:41.767Z,11.87
2023-04-19T21:23:43.301Z,11.93
2023-04-19T21:25:44.835Z,11.84
2023-04-19T21:27:46.417Z,11.82
2023-04-19T21:29:47.857Z,11.77
2023-04-19T21:31:49.344Z,11.81
2023-04-19T21:33:50.808Z,11.79
2023-04-19T21:35:52.321Z,11.71
2023-04-19T21:37:53.800Z,11.61
2023-04-19T21:39:55.349Z,11.58
2023-04-19T21:41:57.557Z,11.62
2023-04-19T21:43:59.068Z,11.65
2023-04-19T21:46:01.845Z,11.56
2023-04-19T21:48:03.386Z,11.54
2023-04-19T21:50:05.130Z,11.41
2023-04-19T21:52:07.061Z,11.46
2023-04-19T21:54:08.673Z,11.50
2023-04-19T21:56:10.219Z,11.50
2023-04-19T21:58:11.698Z,11.45
2023-04-19T22:00:13.313Z,11.48
2023-04-19T22:02:14.898Z,11.50
2023-04-19T22:04:17.109Z,11.50
2023-04-19T22:06:19.331Z,11.51
2023-04-19T22:08:21.972Z,11.54
2023-04-19T22:10:24.024Z,11.48
2023-04-19T22:12:25.711Z,11.53
2023-04-19T22:14:27.883Z,11.58
2023-04-19T22:16:32.922Z,11.55
2023-04-19T22:18:35.849Z,11.58
2023-04-19T22:20:38.479Z,11.60
2023-04-19T22:22:39.958Z,11.62
2023-04-19T22:24:53.811Z,11.61
2023-04-19T22:26:58.316Z,11.60
2023-04-19T22:28:59.836Z,11.58
2023-04-19T22:31:01.371Z,11.62
2023-04-19T22:33:03.010Z,11.62
2023-04-19T22:35:05.771Z,11.61
2023-04-19T22:37:07.311Z,11.61
2023-04-19T22:39:09.234Z,11.64
2023-04-19T22:41:10.803Z,11.62
2023-04-19T22:43:12.382Z,11.66
2023-04-19T22:45:13.861Z,11.67
2023-04-19T22:47:15.346Z,11.65
2023-04-19T22:49:17.189Z,11.60
2023-04-19T22:51:18.941Z,11.58
2023-04-19T22:53:20.547Z,11.44
2023-04-19T22:55:22.042Z,11.17
2023-04-19T22:57:23.527Z,11.18
2023-04-19T22:59:25.186Z,11.31
2023-04-19T23:01:26.777Z,11.37
2023-04-19T23:03:28.344Z,11.37
2023-04-19T23:05:30.259Z,11.43
2023-04-19T23:07:31.799Z,11.51
2023-04-19T23:09:33.303Z,11.58
2023-04-19T23:11:34.809Z,11.61
2023-04-19T23:13:38.230Z,11.59
2023-04-19T23:15:39.788Z,11.59
2023-04-19T23:17:41.405Z,11.60
2023-04-19T23:19:43.471Z,11.59
2023-04-19T23:21:44.917Z,11.55
2023-04-19T23:23:46.598Z,11.56
2023-04-19T23:25:48.285Z,11.60
2023-04-19T23:27:50.475Z,11.61
2023-04-19T23:29:52.031Z,11.48
2023-04-19T23:31:53.655Z,11.48
2023-04-19T23:33:55.186Z,11.45
2023-04-19T23:35:56.750Z,11.42
2023-04-19T23:37:58.220Z,11.35
2023-04-19T23:39:59.749Z,11.27
2023-04-19T23:42:02.198Z,11.27
2023-04-19T23:44:03.728Z,11.32
2023-04-19T23:46:06.152Z,11.28
2023-04-19T23:48:07.770Z,11.32
2023-04-19T23:50:09.437Z,11.34
2023-04-19T23:52:11.549Z,11.39
2023-04-19T23:54:13.160Z,11.48
2023-04-19T23:56:14.743Z,11.46
2023-04-19T23:58:16.239Z,11.51
